Time;durP1;ratioP1;P1;durP2;ratioP2;P2;SDS_P1;SDS_P2;PMS_P1;PMS_P2;Temp;Humidity;BMP_temperature;BMP_pressure;BME280_temperature;BME280_humidity;BME280_pressure;Samples;Min_cycle;Max_cycle;Signal;HPM_P1;HPM_P2
2023/05/20 00:02:24;;;;;;;1.63;1.53;;;17.30;48.70;;;19.94;36.76;102571.78;5053105;28;20268;-69
2023/05/20 00:04:51;;;;;;;4.20;1.60;;;17.30;48.80;;;19.92;36.51;102570.31;5052791;28;20272;-69
2023/05/20 00:07:18;;;;;;;1.77;1.60;;;17.20;48.80;;;19.87;36.39;102568.19;5052632;28;20224;-69
2023/05/20 00:09:45;;;;;;;3.40;1.90;;;17.20;48.60;;;19.84;36.47;102576.59;5052782;28;20639;-69
2023/05/20 00:12:12;;;;;;;1.47;1.20;;;17.10;48.50;;;19.79;36.80;102568.31;5052844;28;20217;-68
2023/05/20 00:14:39;;;;;;;3.40;1.30;;;17.10;48.60;;;19.75;36.48;102574.25;5050469;28;20206;-69
2023/05/20 00:17:06;;;;;;;2.47;1.50;;;17.10;48.60;;;19.71;36.79;102568.44;5032999;28;20190;-69
2023/05/20 00:19:35;;;;;;;1.87;1.70;;;17.10;48.50;;;19.68;36.43;102568.84;5032860;28;20217;-68
2023/05/20 00:22:02;;;;;;;5.93;2.00;;;17.00;48.50;;;19.68;36.45;102568.00;5032756;28;20289;-68
2023/05/20 00:24:28;;;;;;;1.47;1.37;;;17.00;48.50;;;19.63;36.22;102575.75;5032681;28;20261;-69
2023/05/20 00:26:55;;;;;;;4.00;1.40;;;16.90;48.20;;;19.59;36.45;102575.28;5032867;28;20208;-69
2023/05/20 00:29:22;;;;;;;2.43;1.50;;;16.90;48.20;;;19.54;36.33;102578.53;5033596;28;20214;-68
2023/05/20 00:31:49;;;;;;;2.07;1.50;;;16.90;48.10;;;19.50;36.04;102579.09;5052562;28;20190;-68
2023/05/20 00:34:16;;;;;;;2.13;1.53;;;16.80;47.80;;;19.46;36.14;102569.81;5052048;28;20213;-68
2023/05/20 00:36:45;;;;;;;2.90;1.30;;;16.80;47.80;;;19.41;36.08;102577.53;5052387;28;20189;-68
2023/05/20 00:39:12;;;;;;;1.87;1.40;;;16.70;47.60;;;19.36;36.12;102580.78;5052735;28;20186;-68
2023/05/20 00:41:39;;;;;;;5.33;1.60;;;16.70;47.70;;;19.32;36.13;102573.28;5051241;28;20237;-68
2023/05/20 00:44:06;;;;;;;3.17;1.53;;;16.70;47.50;;;19.30;36.11;102575.34;5051978;28;20216;-68
2023/05/20 00:46:34;;;;;;;2.37;1.40;;;16.60;47.40;;;19.25;35.87;102577.72;5052665;28;20273;-69
2023/05/20 00:49:02;;;;;;;1.63;1.37;;;16.60;47.50;;;19.23;35.85;102579.75;5052284;28;20663;-68
2023/05/20 00:51:29;;;;;;;1.83;1.30;;;16.50;47.40;;;19.21;36.12;102579.09;5052441;28;20623;-68
2023/05/20 00:53:58;;;;;;;1.93;1.60;;;16.50;47.60;;;19.21;35.95;102576.41;5055747;28;20193;-68
2023/05/20 00:56:25;;;;;;;2.03;1.40;;;16.50;47.60;;;19.21;35.90;102576.41;5056076;28;20244;-68
2023/05/20 00:58:52;;;;;;;2.33;1.40;;;16.50;47.60;;;19.20;36.11;102575.63;5056038;28;20190;-68
2023/05/20 01:01:19;;;;;;;1.40;1.30;;;16.40;47.50;;;19.17;35.97;102570.63;5056069;28;20209;-70
2023/05/20 01:03:47;;;;;;;3.43;1.20;;;16.40;47.30;;;19.17;35.80;102569.81;5055725;28;20217;-68
2023/05/20 01:06:15;;;;;;;1.20;1.10;;;16.40;47.60;;;19.16;36.03;102568.97;5056192;28;20534;-68
2023/05/20 01:08:42;;;;;;;3.33;1.67;;;16.40;47.50;;;19.18;35.96;102577.66;5055617;28;20194;-68
2023/05/20 01:11:18;;;;;;;3.07;1.27;;;16.40;47.50;;;19.17;35.58;102572.47;5056345;28;20660;-68
2023/05/20 01:13:53;;;;;;;1.87;1.50;;;16.40;47.10;;;19.13;35.54;102574.72;5055012;28;20199;-68
2023/05/20 01:16:23;;;;;;;2.00;1.40;;;16.40;46.90;;;19.12;35.69;102572.19;5056186;28;20208;-69
2023/05/20 01:18:54;;;;;;;4.10;1.20;;;16.40;47.10;;;19.09;35.67;102573.41;5055839;28;20244;-69
2023/05/20 01:21:22;;;;;;;3.00;1.30;;;16.40;47.30;;;19.10;35.72;102571.56;5055666;28;20202;-68
2023/05/20 01:23:50;;;;;;;2.93;1.20;;;16.40;47.30;;;19.10;35.62;102580.41;5055645;28;20564;-69
2023/05/20 01:26:18;;;;;;;2.70;1.40;;;16.30;47.00;;;19.11;35.46;102573.22;5040114;28;20191;-68
2023/05/20 01:28:45;;;;;;;2.00;1.30;;;16.30;46.80;;;19.09;35.48;102570.72;5035631;28;20655;-68
2023/05/20 01:31:23;;;;;;;1.60;1.30;;;16.30;46.80;;;19.06;35.33;102576.47;5035718;28;20691;-68
2023/05/20 01:33:56;;;;;;;3.43;1.37;;;16.30;46.60;;;19.05;35.17;102569.44;5035536;28;20191;-68
2023/05/20 01:36:26;;;;;;;1.40;1.30;;;16.20;46.50;;;19.05;35.18;102566.78;5035730;28;20257;-68
2023/05/20 01:38:56;;;;;;;1.60;1.10;;;16.30;46.60;;;19.05;35.24;102576.63;5035595;28;20273;-68
2023/05/20 01:41:26;;;;;;;1.67;1.50;;;16.20;46.60;;;19.04;35.28;102573.13;5035643;28;20614;-68
2023/05/20 01:43:55;;;;;;;1.43;1.10;;;16.20;46.40;;;19.03;35.09;102568.81;5035520;28;20187;-68
2023/05/20 01:46:22;;;;;;;1.87;1.13;;;16.20;46.50;;;19.03;35.36;102563.47;5035236;28;20190;-67
2023/05/20 01:48:49;;;;;;;1.90;1.47;;;16.20;46.70;;;19.04;35.35;102564.31;5035731;28;20190;-68
2023/05/20 01:51:16;;;;;;;2.23;1.30;;;16.20;46.60;;;19.05;35.29;102561.44;5035190;28;20226;-68
2023/05/20 01:53:43;;;;;;;1.53;1.30;;;16.20;46.70;;;19.05;35.39;102565.94;5034957;28;20229;-68
2023/05/20 01:56:12;;;;;;;1.90;1.30;;;16.20;46.80;;;19.07;35.34;102563.91;5038988;28;20194;-68
2023/05/20 01:58:39;;;;;;;4.07;1.20;;;16.20;46.70;;;19.05;35.38;102555.28;5054976;28;20659;-68
2023/05/20 02:01:06;;;;;;;2.07;1.27;;;16.20;46.60;;;19.03;35.38;102557.31;5054810;28;20190;-68
2023/05/20 02:03:33;;;;;;;2.90;1.40;;;16.20;46.60;;;19.02;35.06;102553.78;5054579;28;20281;-68
2023/05/20 02:05:59;;;;;;;2.00;1.20;;;16.20;46.40;;;19.01;35.26;102557.50;5054817;28;20337;-68
2023/05/20 02:08:26;;;;;;;2.90;1.30;;;16.20;46.60;;;18.97;35.25;102558.06;5054556;28;20201;-68
2023/05/20 02:10:53;;;;;;;1.93;1.10;;;16.20;46.50;;;18.93;35.36;102558.41;5054817;28;20548;-68
2023/05/20 02:13:22;;;;;;;1.30;1.10;;;16.20;46.50;;;18.89;35.15;102549.13;5055829;28;20193;-68
2023/05/20 02:15:50;;;;;;;2.27;1.33;;;16.10;46.30;;;18.84;35.12;102548.84;5056734;28;20253;-70
2023/05/20 02:18:18;;;;;;;2.53;1.67;;;16.10;46.40;;;18.79;35.37;102551.25;5054398;28;20269;-68
2023/05/20 02:20:45;;;;;;;4.20;2.93;;;16.00;46.70;;;18.75;35.38;102547.28;5054485;28;20600;-68
2023/05/20 02:23:12;;;;;;;1.77;1.67;;;16.00;46.60;;;18.73;35.38;102545.81;5054357;28;20500;-68
2023/05/20 02:25:40;;;;;;;2.70;1.50;;;15.90;46.60;;;18.69;35.54;102550.69;5054283;28;20206;-68
2023/05/20 02:28:09;;;;;;;1.50;1.40;;;15.90;46.90;;;18.67;36.12;102554.53;5054561;28;20525;-68
2023/05/20 02:30:38;;;;;;;2.03;1.27;;;15.90;47.10;;;18.65;35.80;102549.41;5054126;28;20316;-68
2023/05/20 02:33:05;;;;;;;1.40;1.23;;;15.90;47.30;;;18.66;35.92;102548.38;5053179;28;20647;-69
2023/05/20 02:35:32;;;;;;;2.60;1.33;;;15.90;47.40;;;18.67;35.76;102551.88;5054314;28;20210;-67
2023/05/20 02:38:00;;;;;;;2.83;1.10;;;15.90;47.20;;;18.64;35.85;102561.06;5054255;28;20194;-69
2023/05/20 02:40:27;;;;;;;3.93;1.33;;;15.80;47.80;;;18.63;35.96;102553.25;5054206;28;20353;-67
2023/05/20 02:42:54;;;;;;;2.43;1.33;;;15.90;47.90;;;18.60;35.88;102562.44;5053874;28;20228;-69
2023/05/20 02:45:21;;;;;;;1.43;1.30;;;15.80;47.00;;;18.58;35.83;102569.81;5054194;28;20206;-69
2023/05/20 02:47:49;;;;;;;2.00;1.40;;;15.80;47.20;;;18.55;35.92;102562.16;5054007;28;20712;-69
2023/05/20 02:50:16;;;;;;;3.87;1.37;;;15.80;47.10;;;18.52;36.00;102559.84;5053793;28;20213;-69
2023/05/20 02:52:44;;;;;;;1.63;1.23;;;15.80;47.40;;;18.51;36.09;102568.88;5053861;28;20189;-69
2023/05/20 02:55:11;;;;;;;1.53;1.43;;;15.80;47.40;;;18.49;35.99;102557.56;5053589;28;20206;-69
2023/05/20 02:57:38;;;;;;;3.37;1.30;;;15.70;47.30;;;18.45;36.15;102564.22;5053861;28;20218;-69
2023/05/20 03:00:10;;;;;;;1.57;1.40;;;15.70;47.40;;;18.42;36.21;102559.28;5053900;28;20269;-69
2023/05/20 03:02:38;;;;;;;1.10;1.00;;;15.70;47.40;;;18.37;36.21;102561.66;5053598;28;20186;-69
2023/05/20 03:05:08;;;;;;;1.83;1.33;;;15.70;47.40;;;18.32;36.17;102563.19;5053358;28;20205;-69
2023/05/20 03:07:35;;;;;;;2.40;1.47;;;15.60;47.50;;;18.28;36.21;102557.38;5053535;28;20213;-69
2023/05/20 03:10:03;;;;;;;1.50;1.40;;;15.60;47.60;;;18.25;36.63;102563.09;5033802;28;20594;-69
2023/05/20 03:12:30;;;;;;;1.17;1.00;;;15.60;47.80;;;18.23;36.46;102562.44;5033725;28;20598;-69
2023/05/20 03:14:59;;;;;;;1.93;1.27;;;15.50;47.90;;;18.21;36.58;102561.75;5042623;28;20267;-69
2023/05/20 03:17:26;;;;;;;1.40;1.13;;;15.50;48.10;;;18.21;36.82;102561.75;5053692;28;20201;-69
2023/05/20 03:19:53;;;;;;;3.20;1.27;;;15.50;48.30;;;18.21;36.70;102567.94;5053489;28;20267;-69
2023/05/20 03:22:21;;;;;;;1.87;1.20;;;15.50;48.40;;;18.23;36.71;102562.44;5053762;28;20186;-69
2023/05/20 03:24:48;;;;;;;2.07;1.40;;;15.50;48.30;;;18.22;36.69;102563.44;5049991;28;20320;-69
2023/05/20 03:27:15;;;;;;;2.87;1.03;;;15.50;48.40;;;18.20;36.77;102554.78;5045618;28;20273;-69
2023/05/20 03:29:42;;;;;;;1.37;1.20;;;15.50;48.30;;;18.19;36.97;102559.28;5053490;28;20190;-69
2023/05/20 03:32:09;;;;;;;5.13;1.20;;;15.50;48.50;;;18.16;36.88;102554.31;5053453;28;20597;-69
2023/05/20 03:34:37;;;;;;;2.67;1.30;;;15.40;48.30;;;18.13;36.79;102559.19;5053332;28;20209;-70
2023/05/20 03:37:04;;;;;;;3.43;1.20;;;15.40;48.50;;;18.08;36.91;102556.22;5053278;28;20190;-69
2023/05/20 03:39:32;;;;;;;5.10;1.27;;;15.40;48.60;;;18.03;37.08;102563.94;5053430;28;20244;-69
2023/05/20 03:42:00;;;;;;;1.17;0.97;;;15.30;48.70;;;17.98;37.13;102556.47;5053355;28;20281;-70
2023/05/20 03:44:27;;;;;;;1.43;1.23;;;15.30;48.90;;;17.96;37.35;102552.31;5053073;28;20285;-69
2023/05/20 03:46:54;;;;;;;1.80;1.10;;;15.20;49.10;;;17.96;37.41;102557.66;5053282;28;20261;-69
2023/05/20 03:49:21;;;;;;;1.53;1.30;;;15.20;49.20;;;17.95;37.48;102554.16;5053396;28;20269;-69
2023/05/20 03:51:48;;;;;;;3.23;1.37;;;15.20;49.40;;;17.93;37.49;102558.00;5053125;28;20222;-69
2023/05/20 03:54:16;;;;;;;2.13;1.20;;;15.20;49.20;;;17.90;37.58;102556.53;5052900;28;20638;-69
2023/05/20 03:56:45;;;;;;;3.10;1.63;;;15.10;49.30;;;17.91;37.38;102560.84;5053157;28;20554;-69
2023/05/20 03:59:12;;;;;;;1.40;1.30;;;15.20;49.50;;;17.89;37.58;102556.72;5053229;28;20331;-69
2023/05/20 04:01:39;;;;;;;2.13;1.07;;;15.20;49.60;;;17.90;37.55;102566.38;5053152;28;20277;-69
2023/05/20 04:04:06;;;;;;;4.10;1.40;;;15.20;49.60;;;17.90;37.59;102558.38;5052928;28;20736;-69
2023/05/20 04:06:34;;;;;;;1.63;1.30;;;15.10;49.60;;;17.91;37.57;102560.03;5053048;28;20224;-68
2023/05/20 04:09:01;;;;;;;2.03;1.47;;;15.10;49.50;;;17.88;37.41;102563.03;5053128;28;20281;-70
2023/05/20 04:11:28;;;;;;;2.23;1.37;;;15.10;49.50;;;17.86;37.55;102560.56;5053354;28;20223;-69
2023/05/20 04:13:59;;;;;;;1.30;1.20;;;15.10;49.70;;;17.83;37.76;102558.22;5052591;28;20404;-70
2023/05/20 04:16:26;;;;;;;2.00;1.60;;;15.00;49.70;;;17.81;38.01;102559.41;5053285;28;20644;-69
2023/05/20 04:18:53;;;;;;;1.27;1.00;;;15.00;50.10;;;17.81;37.64;102559.41;5053289;28;20193;-69
2023/05/20 04:21:20;;;;;;;1.57;1.47;;;15.00;50.00;;;17.80;37.88;102553.28;5053068;28;20681;-69
2023/05/20 04:23:47;;;;;;;2.13;1.90;;;15.00;50.30;;;17.84;38.05;102554.56;5038585;28;20201;-69
2023/05/20 04:26:14;;;;;;;2.77;1.90;;;15.00;50.20;;;17.87;37.92;102558.72;5032902;28;20248;-69
2023/05/20 04:28:41;;;;;;;3.87;2.87;;;15.10;50.30;;;17.86;37.72;102557.88;5035869;28;20216;-69
2023/05/20 04:31:09;;;;;;;3.00;2.70;;;15.00;50.10;;;17.86;38.12;102557.06;5036622;28;20726;-69
2023/05/20 04:33:37;;;;;;;3.83;1.80;;;15.00;50.30;;;17.88;38.08;102557.69;5036848;28;20227;-69
2023/05/20 04:36:08;;;;;;;2.20;1.43;;;15.10;50.50;;;17.89;37.87;102562.03;5036658;28;20211;-69
2023/05/20 04:38:36;;;;;;;2.30;1.40;;;15.10;50.40;;;17.89;37.83;102564.69;5036694;28;20217;-69
2023/05/20 04:41:03;;;;;;;1.30;1.17;;;15.10;50.40;;;17.90;38.07;102561.03;5036682;28;20239;-69
2023/05/20 04:43:30;;;;;;;1.53;1.20;;;15.10;50.40;;;17.90;37.83;102566.38;5036823;28;20714;-69
2023/05/20 04:46:04;;;;;;;1.87;1.30;;;15.00;50.50;;;17.87;37.81;102564.06;5036297;28;20306;-69
2023/05/20 04:48:33;;;;;;;2.10;1.20;;;15.10;50.40;;;17.80;38.00;102573.75;5036275;28;20188;-69
2023/05/20 04:51:00;;;;;;;1.60;1.40;;;15.10;50.50;;;17.76;38.26;102562.63;5036431;28;20301;-69
2023/05/20 04:53:29;;;;;;;1.10;1.00;;;15.00;50.50;;;17.76;38.40;102561.81;5036215;28;20232;-69
2023/05/20 04:55:56;;;;;;;2.20;1.10;;;15.00;50.80;;;17.78;38.29;102559.78;5036366;28;20237;-69
2023/05/20 04:58:24;;;;;;;3.07;1.47;;;15.00;51.00;;;17.81;38.24;102570.06;5036529;28;20198;-69
2023/05/20 05:00:51;;;;;;;2.63;1.30;;;15.00;51.00;;;17.84;38.35;102572.38;5037745;28;20190;-67
2023/05/20 05:03:18;;;;;;;1.20;1.10;;;15.00;51.10;;;17.85;38.46;102574.88;5037937;28;20698;-67
2023/05/20 05:05:47;;;;;;;1.37;1.20;;;15.00;51.10;;;17.88;38.23;102568.34;5036865;28;20210;-68
2023/05/20 05:08:14;;;;;;;1.73;1.23;;;15.10;51.20;;;17.84;38.44;102564.41;5036670;28;20273;-69
2023/05/20 05:10:41;;;;;;;1.20;1.10;;;15.10;51.10;;;17.81;38.48;102565.56;5037458;28;20233;-68
2023/05/20 05:13:08;;;;;;;1.30;1.10;;;15.00;51.10;;;17.78;38.52;102559.78;5056223;28;20196;-68
2023/05/20 05:15:35;;;;;;;1.40;1.30;;;15.10;51.20;;;17.76;38.81;102562.63;5055914;28;20275;-68
2023/05/20 05:18:03;;;;;;;1.23;1.13;;;15.00;51.30;;;17.72;38.96;102556.00;5055185;28;20189;-68
2023/05/20 05:20:30;;;;;;;1.40;1.20;;;15.00;51.50;;;17.69;38.98;102560.81;5054905;28;20202;-68
2023/05/20 05:22:58;;;;;;;3.70;1.60;;;15.00;51.70;;;17.72;38.90;102571.13;5054764;28;20557;-68
2023/05/20 05:25:25;;;;;;;2.53;1.13;;;15.00;51.70;;;17.77;38.88;102571.44;5045895;28;20572;-68
2023/05/20 05:27:54;;;;;;;1.97;1.20;;;15.00;52.20;;;17.77;39.04;102561.63;5035852;28;20190;-68
2023/05/20 05:30:21;;;;;;;1.30;1.20;;;15.00;52.00;;;17.80;39.00;102565.75;5035637;28;20610;-69
2023/05/20 05:32:48;;;;;;;2.50;1.50;;;15.00;52.10;;;17.78;39.32;102559.78;5035745;28;20199;-68
2023/05/20 05:35:15;;;;;;;2.27;1.40;;;15.00;52.30;;;17.79;39.36;102570.25;5035419;28;20275;-68
2023/05/20 05:37:42;;;;;;;2.17;1.30;;;15.00;52.30;;;17.83;39.07;102566.22;5034979;28;20197;-68
2023/05/20 05:40:12;;;;;;;1.40;1.23;;;15.00;52.30;;;17.90;39.05;102571.69;5035447;28;20230;-68
2023/05/20 05:42:39;;;;;;;2.33;1.10;;;15.10;52.50;;;17.98;39.02;102560.97;5036746;28;20613;-69
2023/05/20 05:45:08;;;;;;;2.37;1.30;;;15.10;52.50;;;18.04;38.91;102565.59;5035238;28;20581;-68
2023/05/20 05:47:35;;;;;;;2.27;1.30;;;15.20;52.60;;;18.11;38.92;102558.53;5035542;28;20228;-68
2023/05/20 05:50:03;;;;;;;2.03;1.13;;;15.20;52.60;;;18.15;38.96;102557.16;5035437;28;20212;-68
2023/05/20 05:52:30;;;;;;;1.40;1.30;;;15.30;52.50;;;18.19;38.88;102564.63;5035647;28;20634;-69
2023/05/20 05:54:57;;;;;;;5.07;1.33;;;15.30;52.60;;;18.23;38.92;102568.59;5034772;28;20298;-68
2023/05/20 05:57:25;;;;;;;3.13;1.50;;;15.40;52.70;;;18.25;39.19;102565.75;5034906;28;20223;-68
2023/05/20 05:59:52;;;;;;;1.97;1.10;;;15.40;52.70;;;18.32;39.02;102568.53;5034878;28;20702;-68
2023/05/20 06:02:20;;;;;;;1.50;1.30;;;15.40;52.70;;;18.40;39.05;102555.94;5034888;28;20186;-68
2023/05/20 06:04:47;;;;;;;1.17;1.07;;;15.50;52.80;;;18.48;38.98;102555.91;5034736;28;20210;-68
2023/05/20 06:07:15;;;;;;;1.53;1.30;;;15.60;52.80;;;18.57;38.82;102560.13;5034790;28;20270;-69
2023/05/20 06:09:42;;;;;;;3.30;1.40;;;15.70;52.70;;;18.64;38.66;102547.72;5052249;28;20194;-68
2023/05/20 06:12:09;;;;;;;2.73;1.73;;;15.70;52.70;;;18.64;38.86;102558.41;5054789;28;20223;-68
2023/05/20 06:14:40;;;;;;;2.33;1.40;;;15.70;52.60;;;18.63;39.09;102561.25;5054467;28;20279;-69
2023/05/20 06:17:07;;;;;;;6.03;1.70;;;15.80;52.70;;;18.60;39.04;102565.13;5055010;28;20269;-68
2023/05/20 06:19:34;;;;;;;1.73;1.40;;;15.80;52.60;;;18.63;39.12;102562.09;5054520;28;20186;-69
2023/05/20 06:22:01;;;;;;;2.80;1.63;;;15.80;52.80;;;18.66;39.14;102560.91;5054454;28;20201;-68
2023/05/20 06:24:28;;;;;;;1.43;1.33;;;15.90;52.90;;;18.74;39.05;102558.97;5053529;28;20227;-68
2023/05/20 06:26:55;;;;;;;2.27;1.33;;;15.90;52.90;;;18.80;39.06;102560.88;5034130;28;20277;-68
2023/05/20 06:29:22;;;;;;;2.33;1.30;;;16.00;53.20;;;18.80;39.00;102557.41;5034639;28;20233;-68
2023/05/20 06:31:50;;;;;;;1.93;1.37;;;16.00;53.00;;;18.82;39.14;102561.56;5034625;28;20206;-70
2023/05/20 06:34:18;;;;;;;2.13;1.60;;;16.00;52.90;;;18.86;39.18;102552.16;5034113;28;20236;-68
2023/05/20 06:36:45;;;;;;;1.70;1.43;;;16.10;53.10;;;18.93;38.98;102561.09;5034300;28;20229;-68
2023/05/20 06:39:12;;;;;;;1.90;1.63;;;16.10;53.00;;;18.93;39.21;102553.06;5034248;28;20186;-68
2023/05/20 06:41:39;;;;;;;1.90;1.57;;;16.10;53.10;;;18.96;39.12;102551.03;5034217;28;20187;-68
2023/05/20 06:44:06;;;;;;;1.53;1.43;;;16.20;53.20;;;19.03;39.14;102557.31;5034025;28;20206;-69
2023/05/20 06:46:34;;;;;;;2.93;1.50;;;16.20;53.20;;;19.06;39.27;102551.59;5034341;28;20194;-68
2023/05/20 06:49:02;;;;;;;2.07;1.60;;;16.30;53.40;;;19.16;39.22;102552.16;5033823;28;20235;-69
2023/05/20 06:51:29;;;;;;;2.37;1.47;;;16.30;53.30;;;19.22;39.12;102540.72;5033209;28;20207;-68
2023/05/20 06:53:56;;;;;;;3.50;2.30;;;16.40;53.30;;;19.31;38.89;102539.59;5033744;28;20218;-68
2023/05/20 06:56:23;;;;;;;2.40;2.20;;;16.50;53.30;;;19.39;39.05;102537.69;5032621;28;20221;-68
2023/05/20 06:58:50;;;;;;;11.60;9.70;;;16.50;53.40;;;19.49;38.94;102540.84;5032470;28;20193;-69
2023/05/20 07:01:17;;;;;;;3.47;3.13;;;16.60;53.40;;;19.64;38.95;102534.63;5033638;28;20270;-69
2023/05/20 07:03:45;;;;;;;10.83;7.07;;;16.70;53.40;;;19.76;38.76;102536.63;5033511;28;20239;-69
2023/05/20 07:06:13;;;;;;;2.53;1.90;;;16.80;53.40;;;19.88;38.48;102537.78;5033506;28;20191;-69
2023/05/20 07:08:40;;;;;;;1.67;1.57;;;16.80;53.20;;;19.97;38.41;102530.44;5033932;28;20281;-69
2023/05/20 07:11:07;;;;;;;2.93;1.73;;;17.00;53.50;;;20.01;38.78;102521.03;5033776;28;20210;-69
2023/05/20 07:13:34;;;;;;;1.83;1.67;;;17.00;53.20;;;20.10;38.54;102525.22;5033180;28;20598;-68
2023/05/20 07:16:01;;;;;;;1.87;1.67;;;17.10;53.00;;;20.22;38.25;102524.53;5051225;28;20228;-67
2023/05/20 07:18:28;;;;;;;2.00;1.43;;;17.30;53.30;;;20.37;38.36;102527.13;5053259;28;20251;-70
2023/05/20 07:20:58;;;;;;;1.70;1.60;;;17.30;52.90;;;20.50;38.03;102531.72;5053824;28;20193;-70
2023/05/20 07:23:26;;;;;;;2.13;1.90;;;17.50;53.10;;;20.58;38.34;102531.56;5053113;28;20197;-68
2023/05/20 07:25:53;;;;;;;3.50;1.63;;;17.60;52.90;;;20.68;38.27;102518.69;5053458;28;20237;-69
2023/05/20 07:28:21;;;;;;;3.13;2.40;;;17.70;52.90;;;20.81;37.99;102519.56;5053324;28;20273;-70
2023/05/20 07:30:51;;;;;;;3.23;2.00;;;17.80;52.90;;;20.88;38.08;102514.25;5053490;28;20229;-69
2023/05/20 07:33:20;;;;;;;2.13;1.90;;;17.90;52.70;;;20.91;37.53;102508.50;5053072;28;20276;-69
2023/05/20 07:35:47;;;;;;;2.87;2.07;;;18.00;52.50;;;21.01;37.75;102500.94;5052721;28;20209;-69
2023/05/20 07:38:15;;;;;;;3.83;3.30;;;18.10;52.50;;;21.16;37.35;102495.41;5052882;28;20196;-69
2023/05/20 07:40:43;;;;;;;4.57;2.27;;;18.20;52.50;;;21.32;37.46;102490.53;5052461;28;20193;-69
2023/05/20 07:43:10;;;;;;;4.60;2.40;;;18.40;52.40;;;21.47;37.68;102488.50;5052548;28;20515;-69
2023/05/20 07:45:37;;;;;;;8.03;5.47;;;18.50;52.50;;;21.64;37.10;102482.75;5052204;28;20305;-69
2023/05/20 07:48:07;;;;;;;4.07;2.17;;;18.60;52.30;;;21.73;37.29;102494.97;5051730;28;20226;-69
2023/05/20 07:50:35;;;;;;;2.93;1.77;;;18.70;52.20;;;21.83;36.83;102498.88;5052798;28;20190;-69
2023/05/20 07:53:02;;;;;;;3.97;2.10;;;18.90;52.20;;;21.87;36.91;102493.97;5052555;28;20245;-69
2023/05/20 07:55:32;;;;;;;4.17;2.63;;;19.00;51.90;;;21.94;36.86;102494.78;5052135;28;20268;-69
2023/05/20 07:58:01;;;;;;;3.30;1.97;;;19.10;51.60;;;22.14;36.44;102495.59;5053997;28;20224;-69
2023/05/20 08:00:28;;;;;;;4.70;2.47;;;19.20;51.20;;;22.78;35.77;102493.84;5056193;28;20205;-69
2023/05/20 08:02:55;;;;;;;2.10;1.90;;;19.40;51.30;;;23.94;34.22;102497.94;5056371;28;20221;-69
2023/05/20 08:05:22;;;;;;;3.73;2.60;;;19.70;51.30;;;24.94;31.42;102491.38;5056865;28;20659;-69
2023/05/20 08:07:49;;;;;;;4.13;2.00;;;20.30;48.60;;;26.08;30.62;102488.44;5056330;28;20190;-69
2023/05/20 08:10:16;;;;;;;1.77;1.67;;;20.90;47.80;;;27.05;29.46;102489.53;5056665;28;20617;-69
2023/05/20 08:12:45;;;;;;;3.30;2.30;;;21.60;46.60;;;28.05;28.15;102479.69;5056370;28;20201;-69
2023/05/20 08:15:13;;;;;;;4.50;2.40;;;22.30;45.60;;;29.19;26.71;102484.16;5056600;28;20221;-69
2023/05/20 08:17:40;;;;;;;3.03;2.10;;;23.10;44.70;;;30.05;25.20;102474.88;5056299;28;20193;-69
2023/05/20 08:20:09;;;;;;;5.03;2.90;;;23.80;41.70;;;30.56;24.52;102481.47;5055070;28;20284;-69
2023/05/20 08:22:36;;;;;;;2.50;2.30;;;24.50;40.00;;;31.20;24.22;102470.25;5056653;28;20681;-69
2023/05/20 08:25:07;;;;;;;3.43;2.50;;;25.10;39.80;;;31.94;22.84;102471.38;5056659;28;20221;-69
2023/05/20 08:27:35;;;;;;;2.73;2.13;;;25.70;36.60;;;32.36;21.62;102478.38;5056261;28;20209;-69
2023/05/20 08:30:02;;;;;;;4.30;2.00;;;26.20;35.10;;;32.73;21.51;102467.91;5056411;28;20678;-69
2023/05/20 08:32:30;;;;;;;2.87;2.23;;;26.60;34.40;;;33.08;20.93;102465.00;5056082;28;20285;-69
2023/05/20 08:35:00;;;;;;;2.20;2.10;;;27.00;33.10;;;33.50;20.61;102466.31;5055513;28;20217;-69
2023/05/20 08:37:28;;;;;;;2.83;2.03;;;27.40;32.70;;;33.96;20.77;102465.63;5055824;28;20182;-69
2023/05/20 08:39:55;;;;;;;2.87;2.27;;;27.80;32.60;;;34.59;20.08;102469.03;5055786;28;20315;-69
2023/05/20 08:42:23;;;;;;;8.20;2.40;;;28.20;32.00;;;35.13;19.27;102462.31;5055514;28;20630;-69
2023/05/20 08:44:52;;;;;;;2.97;2.27;;;28.60;30.80;;;35.49;18.88;102460.63;5055358;28;20296;-69
2023/05/20 08:47:20;;;;;;;2.43;2.07;;;28.90;30.00;;;35.84;17.92;102460.00;5055527;28;20185;-69
2023/05/20 08:49:49;;;;;;;4.33;2.30;;;29.30;29.40;;;36.22;17.88;102457.13;5055545;28;20190;-69
2023/05/20 08:52:21;;;;;;;2.13;1.90;;;29.60;29.00;;;36.41;17.35;102457.81;5055888;28;20614;-69
2023/05/20 08:54:49;;;;;;;3.80;2.47;;;29.80;28.00;;;36.22;17.68;102457.94;5056232;28;20301;-68
2023/05/20 08:57:16;;;;;;;3.53;1.90;;;30.00;27.50;;;36.30;17.87;102451.72;5055789;28;20198;-69
2023/05/20 08:59:45;;;;;;;3.63;2.50;;;30.20;27.90;;;36.68;17.56;102438.59;5055904;28;20190;-69
2023/05/20 09:02:13;;;;;;;2.20;1.92;;;30.50;28.30;;;37.10;16.93;102435.44;5056530;28;20190;-68
2023/05/20 09:04:41;;;;;;;3.83;2.05;;;30.60;27.30;;;37.11;16.59;102437.03;5056063;28;20224;-68
2023/05/20 09:07:09;;;;;;;3.72;1.70;;;30.60;26.10;;;36.79;15.85;102448.22;5055836;28;20224;-68
2023/05/20 09:09:36;;;;;;;2.30;1.95;;;30.60;25.70;;;36.56;16.12;102441.06;5056073;28;20272;-68
2023/05/20 09:12:04;;;;;;;4.63;3.45;;;30.60;25.70;;;36.30;16.65;102438.00;5055898;28;20233;-69
2023/05/20 09:14:31;;;;;;;2.87;2.03;;;30.50;25.60;;;35.55;16.72;102448.47;5054888;28;20330;-68
2023/05/20 09:16:58;;;;;;;3.22;2.22;;;30.20;25.60;;;35.37;17.43;102444.63;5054473;28;20677;-68
2023/05/20 09:19:25;;;;;;;2.50;2.27;;;30.00;26.10;;;35.55;17.04;102445.72;5054446;28;20279;-68
2023/05/20 09:21:54;;;;;;;3.63;2.50;;;29.90;26.50;;;35.80;17.39;102433.50;5055276;28;20539;-68
2023/05/20 09:24:25;;;;;;;3.27;1.73;;;29.90;26.40;;;36.15;16.73;102443.81;5055623;28;20565;-68
2023/05/20 09:26:53;;;;;;;6.03;2.37;;;30.00;26.40;;;36.39;16.59;102443.59;5035382;28;20326;-69
2023/05/20 09:29:20;;;;;;;3.00;2.10;;;30.10;26.00;;;36.67;16.48;102434.22;5035752;28;20618;-69
2023/05/20 09:31:48;;;;;;;3.15;2.20;;;30.20;26.20;;;36.99;16.30;102434.03;5035080;28;20194;-69
2023/05/20 09:34:16;;;;;;;4.53;2.10;;;30.50;26.60;;;37.63;16.37;102431.91;5035135;28;20209;-69
2023/05/20 09:36:44;;;;;;;2.15;2.03;;;30.70;26.50;;;38.28;15.33;102421.84;5035214;28;20199;-70
2023/05/20 09:39:15;;;;;;;2.47;1.90;;;31.00;25.60;;;38.45;14.76;102419.13;5035506;28;20185;-68
2023/05/20 09:41:56;;;;;;;3.58;2.20;;;31.20;25.00;;;38.37;14.92;102424.63;5034422;28;20206;-68
2023/05/20 09:44:24;;;;;;;2.20;2.00;;;31.40;24.50;;;37.97;14.89;102418.31;5034842;28;20218;-68
2023/05/20 09:46:53;;;;;;;3.72;2.33;;;31.40;24.50;;;37.03;15.43;102417.75;5035220;28;20194;-68
2023/05/20 09:49:22;;;;;;;2.90;2.20;;;31.30;24.60;;;36.55;16.41;102417.47;5035294;28;20186;-68
2023/05/20 09:51:51;;;;;;;2.45;1.80;;;31.10;25.10;;;36.81;16.03;102399.28;5034837;28;20241;-68
2023/05/20 09:54:19;;;;;;;2.30;1.90;;;31.00;25.10;;;36.18;16.79;102412.22;5034919;28;20517;-68
2023/05/20 09:56:48;;;;;;;1.50;1.40;;;30.80;24.90;;;35.64;17.12;102402.81;5035026;28;20187;-68
2023/05/20 09:59:16;;;;;;;3.80;2.72;;;30.60;24.90;;;35.72;17.06;102410.34;5034843;28;20194;-70
2023/05/20 10:01:44;;;;;;;5.18;2.10;;;30.40;25.00;;;36.29;16.24;102408.13;5035016;28;20195;-68
2023/05/20 10:04:15;;;;;;;2.50;2.00;;;30.40;25.60;;;36.91;15.65;102395.47;5034816;28;20241;-68
2023/05/20 10:07:17;;;;;;;11.43;2.35;;;30.50;25.50;;;37.38;15.32;102394.06;5034533;28;20216;-68
2023/05/20 10:10:07;;;;;;;2.22;1.90;;;30.60;25.00;;;37.19;15.80;102397.00;5044954;28;20251;-68
2023/05/20 10:12:49;;;;;;;3.00;2.70;;;30.80;25.00;;;36.22;16.57;102402.25;5039895;28;20292;-68
2023/05/20 10:15:23;;;;;;;2.75;2.05;;;30.80;24.80;;;35.83;16.49;102395.31;5034334;28;20321;-68
2023/05/20 10:18:12;;;;;;;2.33;1.90;;;30.70;25.20;;;36.40;16.89;102382.88;5034400;28;20653;-68